createdAt,value
2022-10-25T00:00:48.012Z,13.46
2022-10-25T00:03:15.011Z,13.48
2022-10-25T00:05:42.369Z,13.48
2022-10-25T00:08:09.329Z,13.45
2022-10-25T00:10:36.621Z,13.42
2022-10-25T00:13:03.513Z,13.43
2022-10-25T00:15:30.287Z,13.43
2022-10-25T00:17:57.243Z,13.39
2022-10-25T00:20:23.911Z,13.35
2022-10-25T00:22:51.065Z,13.34
2022-10-25T00:25:17.761Z,13.32
2022-10-25T00:27:44.566Z,13.33
2022-10-25T00:30:11.713Z,13.29
2022-10-25T00:32:38.469Z,13.27
2022-10-25T00:35:05.424Z,13.23
2022-10-25T00:37:32.132Z,13.19
2022-10-25T00:39:58.930Z,13.16
2022-10-25T00:42:26.941Z,13.16
2022-10-25T00:44:57.820Z,13.11
2022-10-25T00:47:31.073Z,13.15
2022-10-25T00:50:03.181Z,13.12
2022-10-25T00:52:32.396Z,13.13
2022-10-25T00:55:00.108Z,13.09
2022-10-25T00:57:47.710Z,13.09
2022-10-25T01:00:15.293Z,13.04
2022-10-25T01:02:42.550Z,12.99
2022-10-25T01:05:10.234Z,13.00
2022-10-25T01:07:37.033Z,13.08
2022-10-25T01:10:04.007Z,13.03
2022-10-25T01:12:30.739Z,12.98
2022-10-25T01:14:58.370Z,12.94
2022-10-25T01:17:25.049Z,12.89
2022-10-25T01:20:10.365Z,12.87
2022-10-25T01:22:37.208Z,12.85
2022-10-25T01:25:09.737Z,12.85
2022-10-25T01:27:42.809Z,12.85
2022-10-25T01:30:09.669Z,12.82
2022-10-25T01:32:55.195Z,12.80
2022-10-25T01:35:21.990Z,12.77
2022-10-25T01:37:55.965Z,12.76
2022-10-25T01:40:29.101Z,12.80
2022-10-25T01:42:56.025Z,12.78
2022-10-25T01:45:27.207Z,12.69
2022-10-25T01:47:59.538Z,12.67
2022-10-25T01:50:28.601Z,12.64
2022-10-25T01:52:55.626Z,12.62
2022-10-25T01:55:25.676Z,12.60
2022-10-25T01:58:06.387Z,12.57
2022-10-25T02:00:38.360Z,12.59
2022-10-25T02:03:11.459Z,12.56
2022-10-25T02:05:38.323Z,12.55
2022-10-25T02:08:08.403Z,12.54
2022-10-25T02:10:40.899Z,12.50
2022-10-25T02:13:10.449Z,12.58
2022-10-25T02:15:39.928Z,12.54
2022-10-25T02:18:18.851Z,12.52
2022-10-25T02:20:46.926Z,12.47
2022-10-25T02:23:14.891Z,12.48
2022-10-25T02:25:42.483Z,12.46
2022-10-25T02:28:11.481Z,12.39
2022-10-25T02:30:40.248Z,12.36
2022-10-25T02:33:06.955Z,12.34
2022-10-25T02:35:33.680Z,12.32
2022-10-25T02:38:00.796Z,12.29
2022-10-25T02:40:27.841Z,12.26
2022-10-25T02:42:54.538Z,12.22
2022-10-25T02:45:21.396Z,12.21
2022-10-25T02:47:48.276Z,12.19
2022-10-25T02:50:15.479Z,12.18
2022-10-25T02:52:42.384Z,12.15
2022-10-25T02:55:09.358Z,12.12
2022-10-25T02:57:37.044Z,12.09
2022-10-25T03:00:04.837Z,12.10
2022-10-25T03:02:31.559Z,12.14
2022-10-25T03:04:58.283Z,12.09
2022-10-25T03:07:26.248Z,12.05
2022-10-25T03:09:52.949Z,12.06
2022-10-25T03:12:19.850Z,12.08
2022-10-25T03:14:46.533Z,12.06
2022-10-25T03:17:13.230Z,12.02
2022-10-25T03:19:40.188Z,12.04
2022-10-25T03:22:06.875Z,11.99
2022-10-25T03:24:33.723Z,11.97
2022-10-25T03:27:01.666Z,11.94
2022-10-25T03:29:28.443Z,11.92
2022-10-25T03:31:55.279Z,11.92
2022-10-25T03:34:22.028Z,11.93
2022-10-25T03:36:49.062Z,11.90
2022-10-25T03:39:15.750Z,11.89
2022-10-25T03:41:42.664Z,11.89
2022-10-25T03:44:09.345Z,11.90
2022-10-25T03:46:36.178Z,11.88
2022-10-25T03:49:03.247Z,11.84
2022-10-25T03:51:30.123Z,11.82
2022-10-25T03:53:57.021Z,11.77
2022-10-25T03:56:23.809Z,11.74
2022-10-25T03:58:53.369Z,11.74
2022-10-25T04:01:20.199Z,11.72
2022-10-25T04:03:47.487Z,11.70
2022-10-25T04:06:14.300Z,11.66
2022-10-25T04:08:41.027Z,11.68
2022-10-25T04:11:08.021Z,11.67
2022-10-25T04:13:34.848Z,11.68
2022-10-25T04:16:05.612Z,11.68
2022-10-25T04:18:32.311Z,11.72
2022-10-25T04:20:59.135Z,11.71
2022-10-25T04:23:25.847Z,11.69
2022-10-25T04:25:56.601Z,11.60
2022-10-25T04:28:23.886Z,11.54
2022-10-25T04:30:50.659Z,11.52
2022-10-25T04:33:17.541Z,11.49
2022-10-25T04:35:44.503Z,11.51
2022-10-25T04:38:11.451Z,11.49
2022-10-25T04:40:38.295Z,11.45
2022-10-25T04:43:04.995Z,11.49
2022-10-25T04:45:33.109Z,11.50
2022-10-25T04:47:59.939Z,11.49
2022-10-25T04:50:26.718Z,11.45
2022-10-25T04:52:53.527Z,11.44
2022-10-25T04:55:20.372Z,11.45
2022-10-25T04:57:47.205Z,11.42
2022-10-25T05:00:14.129Z,11.38
2022-10-25T05:02:41.130Z,11.38
2022-10-25T05:05:07.975Z,11.42
2022-10-25T05:07:34.998Z,11.44
2022-10-25T05:10:01.646Z,11.42
2022-10-25T05:12:29.180Z,11.39
2022-10-25T05:14:55.956Z,11.38
2022-10-25T05:17:23.073Z,11.39
2022-10-25T05:19:49.866Z,11.42
2022-10-25T05:22:16.697Z,11.44
2022-10-25T05:24:43.442Z,11.44
2022-10-25T05:27:10.299Z,11.45
2022-10-25T05:29:37.257Z,11.45
2022-10-25T05:32:04.139Z,11.44
2022-10-25T05:34:30.877Z,11.46
2022-10-25T05:36:58.097Z,11.46
2022-10-25T05:39:25.463Z,11.48
2022-10-25T05:41:52.675Z,11.50
2022-10-25T05:44:19.395Z,11.54
2022-10-25T05:46:46.298Z,11.53
2022-10-25T05:49:15.190Z,11.55
2022-10-25T05:51:41.839Z,11.59
2022-10-25T05:54:12.730Z,11.62
2022-10-25T05:56:40.408Z,11.65
2022-10-25T05:59:11.157Z,11.68
2022-10-25T06:01:39.124Z,11.74
2022-10-25T06:04:06.663Z,11.80
2022-10-25T06:06:33.345Z,11.82
2022-10-25T06:09:00.948Z,11.84
2022-10-25T06:11:28.295Z,11.88
2022-10-25T06:13:55.036Z,11.92
2022-10-25T06:16:22.168Z,11.97
2022-10-25T06:18:49.464Z,12.00
2022-10-25T06:21:18.228Z,12.03
2022-10-25T06:23:45.897Z,12.08
2022-10-25T06:26:23.562Z,12.10
2022-10-25T06:28:54.727Z,12.15
2022-10-25T06:31:21.963Z,12.22
2022-10-25T06:33:48.739Z,12.25
2022-10-25T06:36:17.084Z,12.27
2022-10-25T06:38:44.374Z,12.32
2022-10-25T06:41:18.860Z,12.40
2022-10-25T06:43:45.741Z,12.47
2022-10-25T06:46:21.792Z,12.48
2022-10-25T06:48:48.812Z,12.50
2022-10-25T06:51:15.795Z,12.58
2022-10-25T06:53:42.899Z,12.65
2022-10-25T06:56:14.416Z,12.71
2022-10-25T06:58:41.745Z,12.79
2022-10-25T07:01:13.288Z,12.87
2022-10-25T07:03:40.973Z,12.90
2022-10-25T07:06:09.558Z,12.93
2022-10-25T07:08:37.319Z,12.97
2022-10-25T07:11:04.548Z,12.99
2022-10-25T07:13:32.482Z,12.98
2022-10-25T07:16:03.496Z,12.95
2022-10-25T07:18:30.781Z,13.00
2022-10-25T07:21:17.312Z,13.05
2022-10-25T07:23:44.613Z,13.06
2022-10-25T07:26:11.328Z,13.06
2022-10-25T07:28:38.754Z,13.07
2022-10-25T07:31:06.084Z,13.11
2022-10-25T07:33:33.417Z,13.15
2022-10-25T07:36:09.708Z,13.22
2022-10-25T07:38:37.744Z,13.31
2022-10-25T07:41:04.691Z,13.36
2022-10-25T07:43:31.632Z,13.40
2022-10-25T07:45:58.557Z,13.47
2022-10-25T07:48:25.404Z,13.58
2022-10-25T07:50:52.074Z,13.66
2022-10-25T07:53:18.899Z,13.72
2022-10-25T07:55:52.548Z,13.81
2022-10-25T07:58:19.629Z,13.88
2022-10-25T08:00:46.716Z,13.96
2022-10-25T08:03:14.452Z,14.03
2022-10-25T08:05:42.995Z,14.07
2022-10-25T08:08:09.878Z,14.11
2022-10-25T08:10:36.747Z,14.17
2022-10-25T08:13:03.991Z,14.31
2022-10-25T08:15:30.744Z,14.38
2022-10-25T08:18:01.799Z,14.49
2022-10-25T08:20:56.380Z,14.57
2022-10-25T08:23:15.976Z,14.69
2022-10-25T08:25:42.796Z,14.76
2022-10-25T08:28:09.810Z,14.86
2022-10-25T08:30:36.762Z,14.93
2022-10-25T08:33:03.595Z,15.08
2022-10-25T08:35:30.542Z,15.13
2022-10-25T08:38:00.049Z,15.19
2022-10-25T08:40:34.426Z,15.23
2022-10-25T08:43:07.783Z,15.30
2022-10-25T08:45:49.252Z,15.33
2022-10-25T08:48:17.763Z,15.42
2022-10-25T08:50:46.789Z,15.45
2022-10-25T08:53:17.127Z,15.49
2022-10-25T08:55:58.875Z,15.53
2022-10-25T08:58:36.799Z,15.67
2022-10-25T09:01:12.969Z,15.87
2022-10-25T09:06:14.083Z,15.99
2022-10-25T09:08:54.384Z,16.07
2022-10-25T09:11:24.430Z,16.11
2022-10-25T09:14:00.401Z,16.13
2022-10-25T09:16:50.378Z,16.22
2022-10-25T09:19:28.662Z,16.35
2022-10-25T09:22:02.999Z,16.48
2022-10-25T09:24:34.181Z,16.56
2022-10-25T09:27:07.250Z,16.64
2022-10-25T09:29:37.199Z,16.86
2022-10-25T09:32:08.251Z,16.91
2022-10-25T09:34:35.302Z,17.01
2022-10-25T09:37:11.994Z,17.07
2022-10-25T09:39:44.804Z,17.15
2022-10-25T09:42:16.631Z,17.17
2022-10-25T09:44:46.951Z,17.19
2022-10-25T09:47:32.430Z,17.28
2022-10-25T09:50:02.195Z,17.36
2022-10-25T09:52:40.574Z,17.39
2022-10-25T09:55:07.363Z,17.42
2022-10-25T09:57:34.158Z,17.45
2022-10-25T10:00:00.842Z,17.48
2022-10-25T10:02:27.948Z,17.51
2022-10-25T10:04:54.791Z,17.51
2022-10-25T10:07:34.325Z,17.53
2022-10-25T10:10:02.791Z,17.57
2022-10-25T10:12:53.540Z,17.62
2022-10-25T10:15:28.525Z,17.64
2022-10-25T10:18:19.694Z,17.70
2022-10-25T10:20:55.716Z,17.88
2022-10-25T10:23:22.790Z,17.97
2022-10-25T10:25:49.520Z,18.00
2022-10-25T10:28:16.237Z,18.01
2022-10-25T10:30:52.415Z,18.04
2022-10-25T10:33:19.630Z,18.07
2022-10-25T10:35:46.411Z,18.16
2022-10-25T10:38:15.127Z,18.25
2022-10-25T10:40:42.032Z,18.32
2022-10-25T10:43:24.157Z,18.37
2022-10-25T10:45:52.020Z,18.39
2022-10-25T10:48:21.127Z,18.45
2022-10-25T10:50:49.094Z,18.47
2022-10-25T10:53:29.617Z,18.51
2022-10-25T10:55:58.272Z,18.53
2022-10-25T10:58:53.105Z,18.57
2022-10-25T11:01:32.965Z,18.65
2022-10-25T11:04:01.061Z,18.75
2022-10-25T11:06:31.876Z,18.81
2022-10-25T11:09:20.475Z,18.85
2022-10-25T11:12:05.965Z,18.92
2022-10-25T11:14:33.149Z,18.95
2022-10-25T11:17:11.854Z,19.01
2022-10-25T11:19:57.138Z,19.06
2022-10-25T11:22:23.812Z,19.12
2022-10-25T11:24:53.509Z,19.21
2022-10-25T11:27:23.434Z,19.33
2022-10-25T11:29:54.210Z,19.39
2022-10-25T11:32:39.292Z,19.43
2022-10-25T11:35:29.534Z,19.49
2022-10-25T11:38:16.837Z,19.60
2022-10-25T11:40:54.924Z,19.65
2022-10-25T11:43:21.888Z,19.68
2022-10-25T11:45:56.443Z,19.68
2022-10-25T11:48:26.262Z,19.78
2022-10-25T11:50:53.143Z,19.86
2022-10-25T11:53:39.854Z,19.90
2022-10-25T11:56:18.099Z,19.99
2022-10-25T11:59:20.979Z,20.01
2022-10-25T12:02:02.205Z,20.07
2022-10-25T12:04:33.711Z,20.24
2022-10-25T12:07:02.856Z,20.33
2022-10-25T12:09:35.714Z,20.40
2022-10-25T12:12:09.049Z,20.49
2022-10-25T12:14:38.201Z,20.55
2022-10-25T12:17:07.802Z,20.66
2022-10-25T12:19:45.875Z,20.74
2022-10-25T12:22:24.574Z,20.84
2022-10-25T12:24:58.335Z,20.86
2022-10-25T12:27:27.181Z,20.89
2022-10-25T12:30:00.299Z,20.88
2022-10-25T12:32:42.948Z,20.93
2022-10-25T12:35:36.244Z,20.94
2022-10-25T12:38:06.855Z,20.89
2022-10-25T12:40:41.332Z,20.86
2022-10-25T12:43:32.701Z,20.87
2022-10-25T12:46:05.633Z,20.84
2022-10-25T12:48:44.548Z,20.85
2022-10-25T12:51:30.431Z,20.88
2022-10-25T12:54:23.679Z,20.86
2022-10-25T12:56:57.122Z,20.91
2022-10-25T12:59:43.275Z,20.98
2022-10-25T13:02:09.953Z,21.00
2022-10-25T13:04:55.664Z,21.07
2022-10-25T13:07:23.321Z,21.19
2022-10-25T13:09:50.305Z,21.29
2022-10-25T13:12:26.371Z,21.49
2022-10-25T13:14:55.080Z,21.62
2022-10-25T13:17:21.752Z,21.69
2022-10-25T13:19:56.072Z,21.75
2022-10-25T13:22:34.013Z,21.76
2022-10-25T13:25:13.486Z,21.92
2022-10-25T13:28:00.195Z,22.02
2022-10-25T13:30:32.095Z,22.11
2022-10-25T13:33:33.821Z,22.16
2022-10-25T13:36:02.101Z,22.18
2022-10-25T13:38:30.267Z,22.29
2022-10-25T13:41:07.067Z,22.40
2022-10-25T13:43:34.190Z,22.49
2022-10-25T13:46:01.181Z,22.49
2022-10-25T13:48:29.990Z,22.47
2022-10-25T13:51:09.672Z,22.44
2022-10-25T13:53:38.528Z,22.46
2022-10-25T13:56:12.449Z,22.38
2022-10-25T13:58:42.339Z,22.34
2022-10-25T14:01:12.431Z,22.27
2022-10-25T14:03:58.350Z,22.20
2022-10-25T14:06:29.550Z,22.24
2022-10-25T14:09:02.792Z,22.16
2022-10-25T14:11:32.639Z,22.10
2022-10-25T14:14:07.624Z,22.04
2022-10-25T14:16:36.459Z,22.00
2022-10-25T14:19:06.602Z,21.94
2022-10-25T14:21:33.918Z,21.93
2022-10-25T14:24:04.797Z,21.91
2022-10-25T14:26:31.705Z,21.88
2022-10-25T14:29:14.511Z,21.84
2022-10-25T14:31:41.354Z,21.79
2022-10-25T14:34:18.296Z,21.74
2022-10-25T14:36:48.279Z,21.72
2022-10-25T14:39:19.746Z,21.67
2022-10-25T14:41:54.448Z,21.65
2022-10-25T14:44:25.542Z,21.62
2022-10-25T14:46:53.576Z,21.58
2022-10-25T14:49:20.639Z,21.57
2022-10-25T14:51:48.028Z,21.50
2022-10-25T14:54:14.663Z,21.55
2022-10-25T14:56:44.682Z,21.55
2022-10-25T14:59:27.843Z,21.54
2022-10-25T15:02:13.619Z,21.57
2022-10-25T15:04:42.798Z,21.72
2022-10-25T15:07:30.061Z,21.77
2022-10-25T15:09:58.602Z,21.81
2022-10-25T15:12:26.881Z,21.77
2022-10-25T15:14:55.177Z,21.72
2022-10-25T15:17:22.179Z,21.68
2022-10-25T15:20:08.063Z,21.62
2022-10-25T15:22:38.027Z,21.57
2022-10-25T15:25:29.193Z,21.50
2022-10-25T15:27:56.552Z,21.39
2022-10-25T15:30:52.676Z,21.30
2022-10-25T15:33:21.863Z,21.19
2022-10-25T15:35:50.549Z,21.08
2022-10-25T15:38:17.608Z,20.97
2022-10-25T15:40:45.513Z,20.91
2022-10-25T15:43:12.278Z,20.82
2022-10-25T15:45:39.444Z,20.74
2022-10-25T15:48:07.518Z,20.67
2022-10-25T15:50:34.620Z,20.61
2022-10-25T15:53:01.800Z,20.54
2022-10-25T15:55:33.000Z,20.51
2022-10-25T15:58:07.030Z,20.46
2022-10-25T16:00:37.257Z,20.42
2022-10-25T16:03:04.792Z,20.39
2022-10-25T16:05:33.468Z,20.35
2022-10-25T16:08:00.403Z,20.32
2022-10-25T16:10:28.325Z,20.30
2022-10-25T16:12:59.516Z,20.27
2022-10-25T16:15:27.053Z,20.22
2022-10-25T16:17:53.856Z,20.20
2022-10-25T16:20:22.464Z,20.16
2022-10-25T16:22:49.822Z,20.13
2022-10-25T16:25:17.733Z,20.12
2022-10-25T16:27:46.403Z,20.10
2022-10-25T16:30:14.794Z,20.08
2022-10-25T16:32:41.805Z,20.07
2022-10-25T16:35:09.341Z,20.07
2022-10-25T16:37:36.091Z,20.08
2022-10-25T16:40:03.494Z,20.07
2022-10-25T16:42:34.815Z,20.07
2022-10-25T16:45:02.622Z,20.07
2022-10-25T16:47:30.066Z,20.06
2022-10-25T16:49:56.898Z,20.06
2022-10-25T16:52:23.895Z,20.05
2022-10-25T16:54:50.686Z,20.03
2022-10-25T16:57:17.506Z,20.02
2022-10-25T16:59:44.298Z,20.03
2022-10-25T17:02:16.221Z,20.02
2022-10-25T17:04:43.155Z,20.02
2022-10-25T17:07:09.952Z,20.01
2022-10-25T17:09:36.856Z,20.01
2022-10-25T17:12:03.644Z,19.99
2022-10-25T17:14:30.642Z,19.97
2022-10-25T17:17:02.229Z,19.97
2022-10-25T17:19:30.402Z,19.96
2022-10-25T17:21:57.224Z,19.95
2022-10-25T17:24:24.026Z,19.93
2022-10-25T17:26:51.361Z,19.93
2022-10-25T17:29:18.326Z,19.92
2022-10-25T17:31:45.428Z,19.90
2022-10-25T17:34:12.824Z,19.91
2022-10-25T17:36:41.012Z,19.88
2022-10-25T17:39:08.133Z,19.86
2022-10-25T17:41:34.978Z,19.84
2022-10-25T17:44:01.982Z,19.81
2022-10-25T17:46:29.998Z,19.83
2022-10-25T17:49:01.926Z,19.85
2022-10-25T17:51:29.673Z,19.83
2022-10-25T17:53:56.549Z,19.83
2022-10-25T17:56:24.770Z,19.80
2022-10-25T17:58:52.494Z,19.80
2022-10-25T18:01:20.780Z,19.78
2022-10-25T18:03:47.918Z,19.74
2022-10-25T18:06:15.611Z,19.71
2022-10-25T18:08:42.705Z,19.67
2022-10-25T18:11:10.341Z,19.64
2022-10-25T18:13:38.387Z,19.58
2022-10-25T18:18:33.365Z,19.45
2022-10-25T18:21:04.446Z,19.39
2022-10-25T18:23:31.333Z,19.44
2022-10-25T18:25:58.452Z,19.50
2022-10-25T18:28:25.469Z,19.54
2022-10-25T18:30:52.157Z,19.54
2022-10-25T18:33:23.734Z,19.52
2022-10-25T18:35:56.390Z,19.55
2022-10-25T18:38:23.381Z,19.52
2022-10-25T18:40:50.467Z,19.51
2022-10-25T18:43:17.546Z,19.50
2022-10-25T18:45:44.793Z,19.51
2022-10-25T18:48:12.030Z,19.47
2022-10-25T18:50:41.782Z,19.51
2022-10-25T18:53:09.848Z,19.46
2022-10-25T18:55:36.549Z,19.44
2022-10-25T18:58:03.576Z,19.43
2022-10-25T19:00:31.458Z,19.47
2022-10-25T19:02:58.454Z,19.40
2022-10-25T19:05:29.059Z,19.39
2022-10-25T19:07:56.368Z,19.38
2022-10-25T19:10:23.761Z,19.37
2022-10-25T19:12:51.083Z,19.36
2022-10-25T19:15:18.047Z,19.36
2022-10-25T19:17:44.953Z,19.31
2022-10-25T19:20:11.929Z,19.33
2022-10-25T19:22:38.769Z,19.33
2022-10-25T19:25:05.736Z,19.33
2022-10-25T19:27:32.541Z,19.30
2022-10-25T19:29:59.245Z,19.28
2022-10-25T19:32:26.237Z,19.24
2022-10-25T19:34:53.029Z,19.20
2022-10-25T19:37:19.956Z,19.16
2022-10-25T19:39:46.899Z,19.18
2022-10-25T19:42:14.095Z,19.17
2022-10-25T19:44:40.869Z,19.14
2022-10-25T19:47:07.936Z,19.13
2022-10-25T19:49:34.673Z,19.13
2022-10-25T19:52:01.425Z,19.09
2022-10-25T19:54:28.430Z,19.13
2022-10-25T19:56:55.549Z,19.12
2022-10-25T19:59:22.305Z,19.07
2022-10-25T20:01:49.257Z,19.07
2022-10-25T20:04:16.329Z,19.04
2022-10-25T20:06:43.556Z,19.05
2022-10-25T20:09:10.382Z,18.96
2022-10-25T20:11:37.288Z,18.97
2022-10-25T20:14:04.612Z,18.89
2022-10-25T20:16:31.667Z,18.83
2022-10-25T20:18:59.744Z,18.85
2022-10-25T20:21:30.148Z,18.81
2022-10-25T20:23:58.817Z,18.78
2022-10-25T20:26:29.710Z,18.71
2022-10-25T20:28:57.529Z,18.69
2022-10-25T20:31:25.254Z,18.72
2022-10-25T20:33:52.507Z,18.71
2022-10-25T20:36:19.712Z,18.66
2022-10-25T20:38:46.940Z,18.66
2022-10-25T20:41:19.296Z,18.60
2022-10-25T20:43:50.401Z,18.56
2022-10-25T20:46:17.643Z,18.57
2022-10-25T20:48:45.824Z,18.54
2022-10-25T20:51:15.412Z,18.53
2022-10-25T20:53:44.258Z,18.48
2022-10-25T20:56:11.799Z,18.50
2022-10-25T20:58:38.615Z,18.48
2022-10-25T21:01:05.644Z,18.43
2022-10-25T21:03:32.844Z,18.44
2022-10-25T21:06:00.967Z,18.45
2022-10-25T21:08:27.820Z,18.43
2022-10-25T21:10:55.534Z,18.40
2022-10-25T21:13:23.459Z,18.39
2022-10-25T21:15:50.716Z,18.30
2022-10-25T21:18:17.692Z,18.29
2022-10-25T21:20:45.008Z,18.31
2022-10-25T21:23:12.442Z,18.28
2022-10-25T21:25:39.299Z,18.25
2022-10-25T21:28:06.265Z,18.20
2022-10-25T21:30:33.363Z,18.24
2022-10-25T21:33:00.398Z,18.21
2022-10-25T21:35:27.139Z,18.26
2022-10-25T21:37:54.105Z,18.17
2022-10-25T21:40:21.178Z,18.12
2022-10-25T21:42:48.209Z,18.15
2022-10-25T21:45:15.019Z,18.14
2022-10-25T21:47:41.765Z,18.10
2022-10-25T21:50:09.292Z,18.11
2022-10-25T21:52:36.738Z,18.05
2022-10-25T21:55:03.823Z,18.02
2022-10-25T21:57:30.724Z,18.06
2022-10-25T21:59:57.454Z,18.06
2022-10-25T22:02:26.082Z,18.09
2022-10-25T22:04:52.974Z,18.09
2022-10-25T22:07:19.731Z,18.06
2022-10-25T22:09:46.501Z,18.06
2022-10-25T22:12:13.223Z,18.09
2022-10-25T22:14:40.146Z,18.01
2022-10-25T22:17:07.339Z,17.98
2022-10-25T22:19:34.200Z,17.97
2022-10-25T22:22:01.303Z,17.96
2022-10-25T22:24:28.123Z,17.94
2022-10-25T22:26:54.953Z,17.91
2022-10-25T22:29:21.706Z,17.94
2022-10-25T22:31:48.466Z,17.89
2022-10-25T22:34:15.387Z,17.83
2022-10-25T22:36:42.493Z,17.83
2022-10-25T22:39:09.913Z,17.79
2022-10-25T22:41:36.719Z,17.75
2022-10-25T22:44:03.596Z,17.73
2022-10-25T22:46:32.171Z,17.70
2022-10-25T22:48:59.928Z,17.73
2022-10-25T22:51:28.006Z,17.68
2022-10-25T22:53:55.424Z,17.69
2022-10-25T22:56:23.293Z,17.66
2022-10-25T22:58:54.684Z,17.60
2022-10-25T23:01:28.995Z,17.59
2022-10-25T23:03:56.843Z,17.58
2022-10-25T23:06:24.840Z,17.59
2022-10-25T23:08:58.730Z,17.60
2022-10-25T23:11:27.066Z,17.59
2022-10-25T23:13:53.797Z,17.56
2022-10-25T23:16:21.001Z,17.54
2022-10-25T23:18:47.787Z,17.54
2022-10-25T23:21:17.328Z,17.57
2022-10-25T23:23:44.667Z,17.54
2022-10-25T23:26:22.398Z,17.55
2022-10-25T23:28:49.947Z,17.50
2022-10-25T23:31:17.129Z,17.48
2022-10-25T23:33:44.534Z,17.45
2022-10-25T23:36:15.715Z,17.43
2022-10-25T23:38:46.459Z,17.41
2022-10-25T23:41:13.398Z,17.39
2022-10-25T23:43:40.745Z,17.37
2022-10-25T23:46:08.020Z,17.37
2022-10-25T23:48:35.215Z,17.36
2022-10-25T23:51:05.910Z,17.32
2022-10-25T23:53:32.887Z,17.29
2022-10-25T23:56:00.001Z,17.31
2022-10-25T23:58:27.014Z,17.30
